createdAt,value
2022-08-26T00:01:54.978Z,92.00
2022-08-26T00:04:23.646Z,92.10
2022-08-26T00:06:51.006Z,92.20
2022-08-26T00:09:17.924Z,92.60
2022-08-26T00:11:45.448Z,92.40
2022-08-26T00:14:14.015Z,92.50
2022-08-26T00:16:47.597Z,92.70
2022-08-26T00:19:20.284Z,92.80
2022-08-26T00:21:48.736Z,93.00
2022-08-26T00:24:17.337Z,93.20
2022-08-26T00:26:44.204Z,93.30
2022-08-26T00:29:12.380Z,93.50
2022-08-26T00:31:39.994Z,93.70
2022-08-26T00:34:09.615Z,94.00
2022-08-26T00:36:39.552Z,94.30
2022-08-26T00:39:07.889Z,94.40
2022-08-26T00:41:35.198Z,94.60
2022-08-26T00:44:02.432Z,94.70
2022-08-26T00:46:31.615Z,94.90
2022-08-26T00:49:19.231Z,95.00
2022-08-26T00:51:50.991Z,95.00
2022-08-26T00:54:19.594Z,95.10
2022-08-26T00:56:50.478Z,95.20
2022-08-26T00:59:18.054Z,95.20
2022-08-26T01:01:45.932Z,95.20
2022-08-26T01:04:14.832Z,95.20
2022-08-26T01:06:42.219Z,95.20
2022-08-26T01:09:11.889Z,95.20
2022-08-26T01:11:39.120Z,95.30
2022-08-26T01:14:06.537Z,95.20
2022-08-26T01:16:35.793Z,95.20
2022-08-26T01:19:06.727Z,95.00
2022-08-26T01:21:52.188Z,95.00
2022-08-26T01:24:19.371Z,95.00
2022-08-26T01:26:46.279Z,94.90
2022-08-26T01:29:14.985Z,94.90
2022-08-26T01:31:44.047Z,94.90
2022-08-26T01:34:20.162Z,95.00
2022-08-26T01:36:51.385Z,95.10
2022-08-26T01:39:18.786Z,95.30
2022-08-26T01:41:46.223Z,95.30
2022-08-26T01:44:18.545Z,95.20
2022-08-26T01:46:46.675Z,95.20
2022-08-26T01:49:15.171Z,95.30
2022-08-26T01:51:44.437Z,95.30
2022-08-26T01:54:13.873Z,95.20
2022-08-26T01:56:41.090Z,95.30
2022-08-26T01:59:09.471Z,95.30
2022-08-26T02:01:37.671Z,95.40
2022-08-26T02:04:10.593Z,95.50
2022-08-26T02:06:37.941Z,95.50
2022-08-26T02:09:06.850Z,95.50
2022-08-26T02:11:34.022Z,95.40
2022-08-26T02:14:05.595Z,95.40
2022-08-26T02:16:34.279Z,95.30
2022-08-26T02:19:04.697Z,95.20
2022-08-26T02:21:33.893Z,95.20
2022-08-26T02:24:21.295Z,95.20
2022-08-26T02:26:48.625Z,95.20
2022-08-26T02:29:23.685Z,95.40
2022-08-26T02:31:51.055Z,95.50
2022-08-26T02:34:28.116Z,95.40
2022-08-26T02:36:59.321Z,95.40
2022-08-26T02:39:26.125Z,95.50
2022-08-26T02:41:52.946Z,95.50
2022-08-26T02:44:19.799Z,95.50
2022-08-26T02:46:47.372Z,95.60
2022-08-26T02:49:17.754Z,95.60
2022-08-26T02:51:44.506Z,95.50
2022-08-26T02:54:11.908Z,95.50
2022-08-26T02:56:38.645Z,95.40
2022-08-26T02:59:06.158Z,95.40
2022-08-26T03:01:34.549Z,95.40
2022-08-26T03:04:02.810Z,95.40
2022-08-26T03:06:29.801Z,95.30
2022-08-26T03:08:56.615Z,95.30
2022-08-26T03:11:24.027Z,95.30
2022-08-26T03:13:51.810Z,95.30
2022-08-26T03:16:18.936Z,95.10
2022-08-26T03:18:47.044Z,95.10
2022-08-26T03:21:19.855Z,95.10
2022-08-26T03:23:47.105Z,95.10
2022-08-26T03:26:15.507Z,95.10
2022-08-26T03:29:01.329Z,95.10
2022-08-26T03:31:29.325Z,95.10
2022-08-26T03:33:59.631Z,95.10
2022-08-26T03:36:26.637Z,95.30
2022-08-26T03:38:54.475Z,94.90
2022-08-26T03:41:21.418Z,94.80
2022-08-26T03:43:50.676Z,94.80
2022-08-26T03:46:18.171Z,94.90
2022-08-26T03:48:45.779Z,94.90
2022-08-26T03:51:13.826Z,94.80
2022-08-26T03:53:45.444Z,94.80
2022-08-26T03:56:12.820Z,94.80
2022-08-26T03:58:39.664Z,94.80
2022-08-26T04:01:10.275Z,94.80
2022-08-26T04:03:55.950Z,94.70
2022-08-26T04:06:23.032Z,94.80
2022-08-26T04:08:55.959Z,94.80
2022-08-26T04:11:24.624Z,94.70
2022-08-26T04:13:51.774Z,94.70
2022-08-26T04:16:18.725Z,94.80
2022-08-26T04:18:46.910Z,94.90
2022-08-26T04:21:16.140Z,94.90
2022-08-26T04:23:47.567Z,94.80
2022-08-26T04:26:15.183Z,94.80
2022-08-26T04:28:41.944Z,94.70
2022-08-26T04:31:12.754Z,94.70
2022-08-26T04:33:41.845Z,94.70
2022-08-26T04:36:09.162Z,94.80
2022-08-26T04:38:36.451Z,94.70
2022-08-26T04:41:05.442Z,94.70
2022-08-26T04:43:32.422Z,94.90
2022-08-26T04:46:03.652Z,94.90
2022-08-26T04:48:31.251Z,95.00
2022-08-26T04:50:59.915Z,95.00
2022-08-26T04:53:27.906Z,94.90
2022-08-26T04:55:55.283Z,94.90
2022-08-26T04:58:23.123Z,95.00
2022-08-26T05:00:51.536Z,94.90
2022-08-26T05:03:18.948Z,94.90
2022-08-26T05:05:46.617Z,94.90
2022-08-26T05:08:14.917Z,94.90
2022-08-26T05:10:43.641Z,94.90
2022-08-26T05:13:14.304Z,94.80
2022-08-26T05:15:42.942Z,94.80
2022-08-26T05:18:10.698Z,94.80
2022-08-26T05:20:39.676Z,94.90
2022-08-26T05:23:08.040Z,94.80
2022-08-26T05:25:40.466Z,94.80
2022-08-26T05:28:08.069Z,94.80
2022-08-26T05:35:42.190Z,94.90
2022-08-26T05:38:12.839Z,95.30
2022-08-26T05:40:41.877Z,95.50
2022-08-26T05:43:10.582Z,96.00
2022-08-26T05:45:42.336Z,96.00
2022-08-26T05:48:13.164Z,96.10
2022-08-26T05:50:41.469Z,96.20
2022-08-26T05:53:10.393Z,96.10
2022-08-26T05:55:47.778Z,96.20
2022-08-26T05:58:14.756Z,96.10
2022-08-26T06:00:45.195Z,96.20
2022-08-26T06:03:11.994Z,96.10
2022-08-26T06:05:39.702Z,96.00
2022-08-26T06:08:14.058Z,95.60
2022-08-26T06:10:52.697Z,95.40
2022-08-26T06:13:24.182Z,94.90
2022-08-26T06:15:51.572Z,94.70
2022-08-26T06:18:19.796Z,94.50
2022-08-26T06:20:57.153Z,94.40
2022-08-26T06:23:44.188Z,94.50
2022-08-26T06:26:11.478Z,94.40
2022-08-26T06:28:38.334Z,94.20
2022-08-26T06:31:06.235Z,94.30
2022-08-26T06:33:33.205Z,94.00
2022-08-26T06:36:01.175Z,93.90
2022-08-26T06:38:28.555Z,93.80
2022-08-26T06:40:55.726Z,93.60
2022-08-26T06:43:24.039Z,93.50
2022-08-26T06:45:51.369Z,93.50
2022-08-26T06:48:19.431Z,93.40
2022-08-26T06:50:46.847Z,93.50
2022-08-26T06:53:17.202Z,93.60
2022-08-26T06:55:46.141Z,93.50
2022-08-26T06:58:14.189Z,93.60
2022-08-26T07:00:41.672Z,93.50
2022-08-26T07:03:14.200Z,93.50
2022-08-26T07:05:41.019Z,93.50
2022-08-26T07:08:08.000Z,93.50
2022-08-26T07:10:35.677Z,93.60
2022-08-26T07:13:02.955Z,93.70
2022-08-26T07:15:33.644Z,93.60
2022-08-26T07:18:00.415Z,93.50
2022-08-26T07:20:27.310Z,93.60
2022-08-26T07:22:54.162Z,93.50
2022-08-26T07:25:21.134Z,93.50
2022-08-26T07:27:54.508Z,93.40
2022-08-26T07:30:21.464Z,93.30
2022-08-26T07:32:48.570Z,93.20
2022-08-26T07:35:15.484Z,93.10
2022-08-26T07:37:43.047Z,93.20
2022-08-26T07:40:10.178Z,93.20
2022-08-26T07:42:37.172Z,93.10
2022-08-26T07:45:04.176Z,93.10
2022-08-26T07:47:31.058Z,93.00
2022-08-26T07:49:57.965Z,92.90
2022-08-26T07:52:27.168Z,92.90
2022-08-26T07:54:55.355Z,92.80
2022-08-26T07:57:22.146Z,92.70
2022-08-26T07:59:51.546Z,92.90
2022-08-26T08:02:20.938Z,92.50
2022-08-26T08:04:47.790Z,92.70
2022-08-26T08:07:14.824Z,92.40
2022-08-26T08:09:41.713Z,92.50
2022-08-26T08:12:14.040Z,92.30
2022-08-26T08:14:42.394Z,92.30
2022-08-26T08:19:39.061Z,92.20
2022-08-26T08:22:17.258Z,91.90
2022-08-26T08:24:44.757Z,91.90
2022-08-26T08:27:11.755Z,92.00
2022-08-26T08:29:38.905Z,91.80
2022-08-26T08:32:05.993Z,91.80
2022-08-26T08:37:10.962Z,91.40
2022-08-26T08:39:37.852Z,91.30
2022-08-26T08:42:11.138Z,91.10
2022-08-26T08:44:40.232Z,90.90
2022-08-26T08:47:19.276Z,90.70
2022-08-26T08:49:47.642Z,90.70
2022-08-26T08:52:31.896Z,90.90
2022-08-26T08:54:58.851Z,91.00
2022-08-26T08:57:46.597Z,91.00
2022-08-26T09:00:17.880Z,90.90
2022-08-26T09:02:52.403Z,90.90
2022-08-26T09:05:19.255Z,91.00
2022-08-26T09:07:49.214Z,91.30
2022-08-26T09:10:27.370Z,91.30
2022-08-26T09:12:54.461Z,91.30
2022-08-26T09:15:30.215Z,91.50
2022-08-26T09:18:05.609Z,91.50
2022-08-26T09:20:32.938Z,91.60
2022-08-26T09:22:59.767Z,91.70
2022-08-26T09:25:26.662Z,91.80
2022-08-26T09:27:54.552Z,91.80
2022-08-26T09:30:24.725Z,91.90
2022-08-26T09:32:59.256Z,92.00
2022-08-26T09:35:36.423Z,92.00
2022-08-26T09:38:19.970Z,91.90
2022-08-26T09:40:59.380Z,91.60
2022-08-26T09:43:28.488Z,91.60
2022-08-26T09:46:09.798Z,91.40
2022-08-26T09:48:40.651Z,91.40
2022-08-26T09:51:21.821Z,91.20
2022-08-26T09:53:55.134Z,91.20
2022-08-26T09:56:22.120Z,90.80
2022-08-26T09:58:50.343Z,90.10
2022-08-26T10:01:23.626Z,89.80
2022-08-26T10:03:51.461Z,90.00
2022-08-26T10:06:21.197Z,89.60
2022-08-26T10:08:59.052Z,89.60
2022-08-26T10:11:31.512Z,89.40
2022-08-26T10:14:02.149Z,89.50
2022-08-26T10:16:45.118Z,89.10
2022-08-26T10:19:13.299Z,89.80
2022-08-26T10:21:56.204Z,89.90
2022-08-26T10:24:28.543Z,90.00
2022-08-26T10:26:57.557Z,90.00
2022-08-26T10:29:28.498Z,90.10
2022-08-26T10:32:02.572Z,90.10
2022-08-26T10:34:32.089Z,89.80
2022-08-26T10:37:18.859Z,89.60
2022-08-26T10:39:58.592Z,89.60
2022-08-26T10:42:28.846Z,89.30
2022-08-26T10:44:59.151Z,89.20
2022-08-26T10:47:31.462Z,88.80
2022-08-26T10:50:03.042Z,89.30
2022-08-26T10:52:33.389Z,89.40
2022-08-26T10:55:22.602Z,89.90
2022-08-26T10:57:54.916Z,90.10
2022-08-26T11:00:50.247Z,90.00
2022-08-26T11:03:35.810Z,89.50
2022-08-26T11:06:28.995Z,88.40
2022-08-26T11:08:57.250Z,88.30
2022-08-26T11:11:36.822Z,88.50
2022-08-26T11:14:05.042Z,88.90
2022-08-26T11:16:43.827Z,89.20
2022-08-26T11:19:12.611Z,88.70
2022-08-26T11:22:02.039Z,89.00
2022-08-26T11:24:39.411Z,88.60
2022-08-26T11:27:09.850Z,87.40
2022-08-26T11:29:56.005Z,86.60
2022-08-26T11:32:25.656Z,86.70
2022-08-26T11:34:58.331Z,85.80
2022-08-26T11:37:28.711Z,85.60
2022-08-26T11:39:57.290Z,85.20
2022-08-26T11:42:32.061Z,85.60
2022-08-26T11:45:01.378Z,85.80
2022-08-26T11:47:31.956Z,85.90
2022-08-26T11:50:34.464Z,86.50
2022-08-26T11:53:06.142Z,86.90
2022-08-26T11:55:35.007Z,90.10
2022-08-26T11:58:05.154Z,90.70
2022-08-26T12:00:53.047Z,91.50
2022-08-26T12:03:52.839Z,92.30
2022-08-26T12:06:46.544Z,92.80
2022-08-26T12:09:19.929Z,93.40
2022-08-26T12:11:47.282Z,93.00
2022-08-26T12:14:19.280Z,93.10
2022-08-26T12:16:46.335Z,93.10
2022-08-26T12:19:26.402Z,93.20
2022-08-26T12:21:59.153Z,93.50
2022-08-26T12:24:26.308Z,93.50
2022-08-26T12:27:06.148Z,93.50
2022-08-26T12:29:33.105Z,93.60
2022-08-26T12:32:26.284Z,94.00
2022-08-26T12:34:55.355Z,94.00
2022-08-26T12:37:22.603Z,93.90
2022-08-26T12:39:49.589Z,93.90
2022-08-26T12:42:20.218Z,93.70
2022-08-26T12:44:53.894Z,93.60
2022-08-26T12:47:41.958Z,94.30
2022-08-26T12:50:12.593Z,94.50
2022-08-26T12:53:04.579Z,94.50
2022-08-26T12:55:36.775Z,94.60
2022-08-26T12:58:16.400Z,94.60
2022-08-26T13:00:45.193Z,94.70
2022-08-26T13:03:32.534Z,94.50
2022-08-26T13:06:19.103Z,93.90
2022-08-26T13:09:06.641Z,94.10
2022-08-26T13:11:39.760Z,93.70
2022-08-26T13:14:08.089Z,92.70
2022-08-26T13:16:36.582Z,92.90
2022-08-26T13:19:10.214Z,93.10
2022-08-26T13:21:41.685Z,92.80
2022-08-26T13:24:11.839Z,93.10
2022-08-26T13:26:39.394Z,93.60
2022-08-26T13:29:10.484Z,93.50
2022-08-26T13:31:39.079Z,93.60
2022-08-26T13:34:06.524Z,93.40
2022-08-26T13:36:33.664Z,93.10
2022-08-26T13:39:00.728Z,93.00
2022-08-26T13:41:29.076Z,92.60
2022-08-26T13:43:56.729Z,92.30
2022-08-26T13:46:26.321Z,92.10
2022-08-26T13:48:54.524Z,91.60
2022-08-26T13:51:25.415Z,91.10
2022-08-26T13:53:52.955Z,91.30
2022-08-26T13:56:20.191Z,91.30
2022-08-26T13:58:47.712Z,91.80
2022-08-26T14:01:16.707Z,92.30
2022-08-26T14:03:43.943Z,92.60
2022-08-26T14:06:10.941Z,93.00
2022-08-26T14:08:38.021Z,93.00
2022-08-26T14:11:05.071Z,93.40
2022-08-26T14:13:31.865Z,93.50
2022-08-26T14:16:01.582Z,93.80
2022-08-26T14:18:29.952Z,93.70
2022-08-26T14:20:59.504Z,93.40
2022-08-26T14:23:26.741Z,93.40
2022-08-26T14:25:53.651Z,93.00
2022-08-26T14:28:20.484Z,92.60
2022-08-26T14:30:55.213Z,92.70
2022-08-26T14:33:24.600Z,92.80
2022-08-26T14:35:51.513Z,92.50
2022-08-26T14:38:18.541Z,92.50
2022-08-26T14:40:45.397Z,92.40
2022-08-26T14:43:15.231Z,92.60
2022-08-26T14:48:15.303Z,92.70
2022-08-26T14:50:43.075Z,92.10
2022-08-26T14:53:31.417Z,91.90
2022-08-26T14:55:58.303Z,92.00
2022-08-26T14:58:25.222Z,91.70
2022-08-26T15:00:57.798Z,91.80
2022-08-26T15:03:28.539Z,91.90
2022-08-26T15:05:55.638Z,91.90
2022-08-26T15:08:22.454Z,91.80
2022-08-26T15:10:49.703Z,92.00
2022-08-26T15:13:16.769Z,91.60
2022-08-26T15:15:43.691Z,92.00
2022-08-26T15:18:10.697Z,92.10
2022-08-26T15:20:38.245Z,91.90
2022-08-26T15:23:06.995Z,91.70
2022-08-26T15:25:34.749Z,91.60
2022-08-26T15:28:01.703Z,91.70
2022-08-26T15:30:28.695Z,91.90
2022-08-26T15:32:55.567Z,91.80
2022-08-26T15:35:22.383Z,91.50
2022-08-26T15:40:22.060Z,91.40
2022-08-26T15:42:57.631Z,91.40
2022-08-26T15:45:28.480Z,91.00
2022-08-26T15:48:01.130Z,91.40
2022-08-26T15:50:29.042Z,91.10
2022-08-26T15:52:56.042Z,91.10
2022-08-26T15:55:23.506Z,91.00
2022-08-26T15:57:50.551Z,91.20
2022-08-26T16:00:17.590Z,90.70
2022-08-26T16:02:44.573Z,90.40
2022-08-26T16:05:11.433Z,90.30
2022-08-26T16:07:38.564Z,90.50
2022-08-26T16:10:08.556Z,90.60
2022-08-26T16:12:35.475Z,90.70
2022-08-26T16:15:02.425Z,90.60
2022-08-26T16:17:29.602Z,90.80
2022-08-26T16:19:56.524Z,90.70
2022-08-26T16:22:23.615Z,90.40
2022-08-26T16:24:50.638Z,90.10
2022-08-26T16:27:17.533Z,89.80
2022-08-26T16:29:45.357Z,89.60
2022-08-26T16:32:12.280Z,89.70
2022-08-26T16:34:56.379Z,89.80
2022-08-26T16:37:24.549Z,89.10
2022-08-26T16:39:51.716Z,89.50
2022-08-26T16:42:23.064Z,89.20
2022-08-26T16:44:51.200Z,88.60
2022-08-26T16:47:18.678Z,89.20
2022-08-26T16:49:46.699Z,89.30
2022-08-26T16:52:14.051Z,88.30
2022-08-26T16:54:41.559Z,88.70
2022-08-26T16:57:09.954Z,88.70
2022-08-26T16:59:40.766Z,88.60
2022-08-26T17:02:08.018Z,88.90
2022-08-26T17:04:34.920Z,89.10
2022-08-26T17:07:01.773Z,88.50
2022-08-26T17:09:28.845Z,88.20
2022-08-26T17:11:58.184Z,87.70
2022-08-26T17:14:28.575Z,87.90
2022-08-26T17:16:55.647Z,87.60
2022-08-26T17:19:22.670Z,87.50
2022-08-26T17:21:49.595Z,87.70
2022-08-26T17:24:16.704Z,87.60
2022-08-26T17:26:47.798Z,87.60
2022-08-26T17:29:17.711Z,87.00
2022-08-26T17:31:45.177Z,86.70
2022-08-26T17:34:12.011Z,86.70
2022-08-26T17:36:38.858Z,87.50
2022-08-26T17:39:06.182Z,87.70
2022-08-26T17:41:33.468Z,88.10
2022-08-26T17:44:00.363Z,88.80
2022-08-26T17:46:27.551Z,88.10
2022-08-26T17:48:57.664Z,88.10
2022-08-26T17:51:25.093Z,88.10
2022-08-26T17:53:52.135Z,87.80
2022-08-26T17:56:20.265Z,88.00
2022-08-26T17:58:52.060Z,87.70
2022-08-26T18:01:20.063Z,88.00
2022-08-26T18:03:47.306Z,87.90
2022-08-26T18:06:18.178Z,88.80
2022-08-26T18:08:47.440Z,88.70
2022-08-26T18:11:15.999Z,88.10
2022-08-26T18:13:46.955Z,88.30
2022-08-26T18:16:15.340Z,88.20
2022-08-26T18:18:43.522Z,87.90
2022-08-26T18:21:12.026Z,87.60
2022-08-26T18:23:38.941Z,87.60
2022-08-26T18:26:05.856Z,87.70
2022-08-26T18:28:32.995Z,87.90
2022-08-26T18:31:03.553Z,88.00
2022-08-26T18:33:31.073Z,88.30
2022-08-26T18:35:58.029Z,88.40
2022-08-26T18:38:24.936Z,88.80
2022-08-26T18:40:55.370Z,88.50
2022-08-26T18:43:22.890Z,88.60
2022-08-26T18:45:49.805Z,88.70
2022-08-26T18:48:16.752Z,89.40
2022-08-26T18:50:47.298Z,89.00
2022-08-26T18:53:15.737Z,89.00
2022-08-26T18:55:42.770Z,88.80
2022-08-26T18:58:09.837Z,88.80
2022-08-26T19:00:37.949Z,88.60
2022-08-26T19:03:05.239Z,88.60
2022-08-26T19:05:42.421Z,88.30
2022-08-26T19:08:10.963Z,88.40
2022-08-26T19:10:39.084Z,88.40
2022-08-26T19:13:06.860Z,88.20
2022-08-26T19:15:37.445Z,88.10
2022-08-26T19:18:04.732Z,87.90
2022-08-26T19:20:32.296Z,88.50
2022-08-26T19:23:02.636Z,88.00
2022-08-26T19:25:44.847Z,88.00
2022-08-26T19:28:11.891Z,87.80
2022-08-26T19:30:43.052Z,88.10
2022-08-26T19:33:11.069Z,88.00
2022-08-26T19:35:41.939Z,88.00
2022-08-26T19:38:09.298Z,88.10
2022-08-26T19:40:38.617Z,88.10
2022-08-26T19:43:05.782Z,88.50
2022-08-26T19:45:33.723Z,88.60
2022-08-26T19:48:00.763Z,89.00
2022-08-26T19:50:28.830Z,88.80
2022-08-26T19:52:55.729Z,88.90
2022-08-26T19:55:26.314Z,89.00
2022-08-26T19:57:53.407Z,88.80
2022-08-26T20:00:22.045Z,89.40
2022-08-26T20:02:49.035Z,89.60
2022-08-26T20:05:16.992Z,89.20
2022-08-26T20:07:44.111Z,89.50
2022-08-26T20:10:13.451Z,89.20
2022-08-26T20:12:41.691Z,89.40
2022-08-26T20:15:10.564Z,89.30
2022-08-26T20:17:37.773Z,89.20
2022-08-26T20:20:32.652Z,89.60
2022-08-26T20:23:01.363Z,89.30
2022-08-26T20:25:28.405Z,89.60
2022-08-26T20:27:55.371Z,89.20
2022-08-26T20:30:22.397Z,89.20
2022-08-26T20:32:49.369Z,89.40
2022-08-26T20:35:17.057Z,89.60
2022-08-26T20:37:44.185Z,89.80
2022-08-26T20:40:12.800Z,88.90
2022-08-26T20:42:39.798Z,89.00
2022-08-26T20:45:08.567Z,89.50
2022-08-26T20:47:35.695Z,89.60
2022-08-26T20:50:02.917Z,89.30
2022-08-26T20:52:30.714Z,89.50
2022-08-26T20:54:57.948Z,90.30
